createdAt,value
2022-08-27T00:01:02.690Z,9
2022-08-27T00:11:08.555Z,8
2022-08-27T00:21:15.075Z,9
2022-08-27T00:31:27.848Z,11
2022-08-27T00:41:26.856Z,9
2022-08-27T00:51:32.867Z,11
2022-08-27T01:01:40.659Z,9
2022-08-27T01:11:45.618Z,11
2022-08-27T01:21:50.929Z,10
2022-08-27T01:31:55.518Z,9
2022-08-27T01:42:01.870Z,9
2022-08-27T01:52:06.577Z,9
2022-08-27T02:02:12.686Z,9
2022-08-27T02:12:27.040Z,9
2022-08-27T02:22:22.807Z,11
2022-08-27T02:32:32.910Z,10
2022-08-27T02:42:33.085Z,10
2022-08-27T02:52:41.269Z,13
2022-08-27T03:02:44.625Z,11
2022-08-27T03:12:49.659Z,11
2022-08-27T03:22:57.949Z,10
2022-08-27T03:33:05.982Z,12
2022-08-27T03:43:10.941Z,12
2022-08-27T03:53:18.269Z,11
2022-08-27T04:03:25.089Z,10
2022-08-27T04:13:31.942Z,8
2022-08-27T04:23:38.373Z,11
2022-08-27T04:33:51.545Z,13
2022-08-27T04:43:53.536Z,12
2022-08-27T04:54:01.648Z,11
2022-08-27T05:04:01.306Z,12
2022-08-27T05:14:07.929Z,9
2022-08-27T05:24:20.044Z,11
2022-08-27T05:34:26.818Z,9
2022-08-27T05:44:47.795Z,11
2022-08-27T05:54:45.042Z,11
2022-08-27T06:04:54.081Z,9
2022-08-27T06:14:55.296Z,12
2022-08-27T06:24:59.148Z,12
2022-08-27T06:35:05.280Z,10
2022-08-27T06:45:13.976Z,11
2022-08-27T06:55:18.800Z,9
2022-08-27T07:05:27.305Z,11
2022-08-27T07:15:35.745Z,11
2022-08-27T07:25:36.425Z,14
2022-08-27T07:35:42.111Z,12
2022-08-27T07:45:48.746Z,8
2022-08-27T08:06:01.281Z,9
2022-08-27T08:16:08.900Z,7
2022-08-27T08:26:20.645Z,6
2022-08-27T08:36:28.001Z,6
2022-08-27T08:56:31.512Z,8
2022-08-27T09:06:45.389Z,11
2022-08-27T09:11:45.875Z,8
2022-08-27T09:22:04.497Z,9
2022-08-27T10:02:16.192Z,6
2022-08-27T10:12:24.914Z,7
2022-08-27T10:22:26.988Z,7
2022-08-27T10:32:32.320Z,8
2022-08-27T10:42:38.587Z,9
2022-08-27T10:52:52.237Z,9
2022-08-27T11:03:03.004Z,8
2022-08-27T11:13:15.732Z,7
2022-08-27T11:23:20.388Z,7
2022-08-27T11:33:27.032Z,7
2022-08-27T11:43:32.171Z,9
2022-08-27T11:53:53.212Z,10
2022-08-27T12:13:53.655Z,8
2022-08-27T12:23:58.177Z,9
2022-08-27T12:34:02.434Z,8
2022-08-27T12:44:09.856Z,7
2022-08-27T12:54:15.197Z,5
2022-08-27T13:04:21.421Z,8
2022-08-27T13:14:24.933Z,8
2022-08-27T13:24:32.471Z,7
2022-08-27T13:34:42.679Z,10
2022-08-27T13:44:48.519Z,12
2022-08-27T13:54:47.570Z,11
2022-08-27T14:04:53.629Z,10
2022-08-27T14:14:58.071Z,14
2022-08-27T14:25:03.721Z,12
2022-08-27T15:35:45.093Z,10
2022-08-27T15:45:56.336Z,11
2022-08-27T16:56:38.063Z,14
2022-08-27T17:07:03.738Z,15
2022-08-27T17:17:01.291Z,12
2022-08-27T17:27:06.874Z,12
2022-08-27T17:37:20.496Z,12
2022-08-27T17:47:20.942Z,15
2022-08-27T17:57:26.327Z,12
2022-08-27T18:07:30.699Z,16
2022-08-27T18:17:43.262Z,15
2022-08-27T18:27:43.895Z,14
2022-08-27T18:37:49.297Z,12
2022-08-27T18:47:56.382Z,15
2022-08-27T18:58:00.803Z,11
2022-08-27T19:08:07.057Z,16
2022-08-27T19:18:15.130Z,16
2022-08-27T19:28:21.056Z,13
2022-08-27T19:38:39.761Z,10
2022-08-27T19:48:32.002Z,12
2022-08-27T19:58:43.144Z,11
2022-08-27T20:08:51.810Z,11
2022-08-27T20:18:52.792Z,14
2022-08-27T20:29:33.031Z,12
2022-08-27T20:39:25.829Z,12
2022-08-27T20:49:30.816Z,11
2022-08-27T20:59:36.243Z,12
2022-08-27T21:09:57.601Z,13
2022-08-27T21:19:51.931Z,12
2022-08-27T21:29:56.346Z,14
2022-08-27T21:40:01.789Z,15
2022-08-27T21:50:04.872Z,14
2022-08-27T22:00:11.489Z,15
2022-08-27T22:10:17.291Z,14
2022-08-27T22:20:21.768Z,12
2022-08-27T22:30:26.683Z,13
2022-08-27T22:40:34.556Z,12
2022-08-27T22:50:40.552Z,13
2022-08-27T23:00:50.092Z,13
2022-08-27T23:10:51.569Z,15
2022-08-27T23:20:55.951Z,12
2022-08-27T23:31:04.335Z,12
2022-08-27T23:41:08.898Z,13
2022-08-27T23:51:21.557Z,13
